This is the latest recevied weather packets stored in our database for station/object DG8SF-13. If no packets are shown the sender has not sent any weather packets the latest 10 day(s).
| Time | Temp. | Humidity | Pressure | Rain* | Wind** | Luminosity | Snow |
|---|---|---|---|---|---|---|---|
| 1777962942 | 16.11° C | 73% | 1008.6 hPa | 0 mm | - | - | - |
| 1777962633 | 15.56° C | 77% | 1008.7 hPa | 0 mm | - | - | - |
| 1777962318 | 12.22° C | 89% | 1008.8 hPa | 0 mm | - | - | - |
| 1777962006 | 11.67° C | 87% | 1008.8 hPa | 0 mm | - | - | - |
| 1777961693 | 11.67° C | 85% | 1008.7 hPa | 0 mm | - | - | - |
| 1777961383 | 12.22° C | 83% | 1008.8 hPa | 0 mm | - | - | - |
| 1777961070 | 12.78° C | 82% | 1008.9 hPa | 0 mm | - | - | - |
| 1777960758 | 13.33° C | 79% | 1008.8 hPa | 0 mm | - | - | - |
| 1777960447 | 12.22° C | 84% | 1008.9 hPa | 0 mm | - | - | - |
| 1777960134 | 12.22° C | 81% | 1009 hPa | 0 mm | - | - | - |
| 1777959821 | 12.22° C | 86% | 1008.9 hPa | 0 mm | - | - | - |
| 1777959512 | 10.56° C | 93% | 1009 hPa | 0 mm | - | - | - |
| 1777959197 | 9.44° C | 96% | 1009 hPa | 0 mm | - | - | - |
| 1777958886 | 8.89° C | 97% | 1009 hPa | 0 mm | - | - | - |
| 1777958575 | 8.89° C | 98% | 1009 hPa | 0 mm | - | - | - |
| 1777958263 | 8.33° C | 99% | 1009.1 hPa | 0 mm | - | - | - |
| 1777957949 | 8.33° C | 99% | 1009.1 hPa | 0 mm | - | - | - |
| 1777957638 | 8.33° C | 99% | 1009 hPa | 0 mm | - | - | - |
| 1777957326 | 7.78° C | 99% | 1009 hPa | 0 mm | - | - | - |
| 1777957014 | 7.78° C | 99% | 1009.1 hPa | 0 mm | - | - | - |
| 1777956702 | 7.78° C | 98% | 1009 hPa | 0 mm | - | - | - |
| 1777956390 | 7.22° C | 98% | 1009.1 hPa | 0 mm | - | - | - |
| 1777956077 | 7.22° C | 98% | 1009.1 hPa | 0 mm | - | - | - |
| 1777955766 | 7.22° C | 98% | 1009.1 hPa | 0 mm | - | - | - |
| 1777955454 | 7.22° C | 98% | 1009.1 hPa | 0 mm | - | - | - |
* Rain latest hour (hover to see other rain measurements)
** Current wind speed in m/s (hover to see current wind gust speed)